Time;durP1;ratioP1;P1;durP2;ratioP2;P2;SDS_P1;SDS_P2;PMS_P1;PMS_P2;Temp;Humidity;BMP_temperature;BMP_pressure;BME280_temperature;BME280_humidity;BME280_pressure;Samples;Min_cycle;Max_cycle;Signal;HPM_P1;HPM_P2
2023/09/09 00:01:06;;;;;;;6.10;5.17;;;23.90;99.90;;;;;;4946567;28;20301;-77
2023/09/09 00:03:32;;;;;;;6.57;5.00;;;23.90;99.90;;;;;;4943596;29;20184;-77
2023/09/09 00:05:58;;;;;;;5.97;5.17;;;23.80;99.90;;;;;;4941476;29;21052;-76
2023/09/09 00:08:24;;;;;;;5.20;4.43;;;23.80;99.90;;;;;;4943419;29;20633;-76
2023/09/09 00:10:49;;;;;;;5.03;4.53;;;23.70;99.90;;;;;;4953468;29;20552;-76
2023/09/09 00:13:15;;;;;;;6.93;4.63;;;23.70;99.90;;;;;;4952913;28;20647;-76
2023/09/09 00:15:41;;;;;;;5.57;5.07;;;23.70;99.90;;;;;;4957119;29;20196;-76
2023/09/09 00:18:07;;;;;;;5.13;4.63;;;23.60;99.90;;;;;;4975370;29;20652;-77
2023/09/09 00:20:36;;;;;;;6.83;4.57;;;23.60;99.90;;;;;;4941184;29;20616;-77
2023/09/09 00:23:09;;;;;;;5.13;4.63;;;23.60;99.90;;;;;;4976847;28;20234;-77
2023/09/09 00:25:39;;;;;;;4.93;4.43;;;23.50;99.90;;;;;;4958929;29;20588;-77
2023/09/09 00:28:05;;;;;;;5.37;4.53;;;23.50;99.90;;;;;;4957930;29;20660;-77
2023/09/09 00:30:31;;;;;;;4.60;4.10;;;23.50;99.90;;;;;;4951631;29;20587;-77
2023/09/09 00:32:58;;;;;;;4.63;4.13;;;23.50;99.90;;;;;;4953169;28;21013;-77
2023/09/09 00:35:23;;;;;;;3.90;3.60;;;23.40;99.90;;;;;;4954089;29;20195;-76
2023/09/09 00:37:49;;;;;;;5.23;4.73;;;23.50;99.90;;;;;;4941237;29;20597;-79
2023/09/09 00:40:15;;;;;;;4.63;4.13;;;23.40;99.90;;;;;;4934249;29;20940;-79
2023/09/09 00:42:41;;;;;;;5.60;4.40;;;23.30;99.90;;;;;;4933849;29;20204;-80
2023/09/09 00:45:07;;;;;;;9.73;4.90;;;23.30;99.90;;;;;;4934023;29;20604;-79
2023/09/09 00:47:33;;;;;;;5.13;4.60;;;23.30;99.90;;;;;;4934926;29;20185;-79
2023/09/09 00:49:59;;;;;;;4.53;4.13;;;23.30;99.90;;;;;;4934024;29;20599;-79
2023/09/09 00:52:26;;;;;;;4.33;3.90;;;23.20;99.90;;;;;;4901211;29;20636;-79
2023/09/09 00:54:52;;;;;;;5.80;5.07;;;23.20;99.90;;;;;;4934138;29;20582;-79
2023/09/09 00:57:19;;;;;;;7.63;4.17;;;23.20;99.90;;;;;;4916863;29;20596;-79
2023/09/09 00:59:46;;;;;;;8.20;4.10;;;23.20;99.90;;;;;;4933763;29;20600;-79
2023/09/09 01:02:11;;;;;;;4.30;3.90;;;23.20;99.90;;;;;;4932453;29;20632;-79
2023/09/09 01:04:37;;;;;;;4.50;3.80;;;23.10;99.90;;;;;;4948298;28;20988;-79
2023/09/09 01:07:22;;;;;;;3.37;3.07;;;23.10;99.90;;;;;;4933923;29;20204;-79
2023/09/09 01:09:48;;;;;;;4.93;4.43;;;23.10;99.90;;;;;;4901007;29;20593;-79
2023/09/09 01:12:13;;;;;;;5.87;4.17;;;23.00;99.90;;;;;;4932321;29;20680;-79
2023/09/09 01:14:40;;;;;;;5.43;4.93;;;23.00;99.90;;;;;;4915885;29;20212;-79
2023/09/09 01:17:06;;;;;;;4.80;3.80;;;22.90;99.90;;;;;;4945699;29;20180;-79
2023/09/09 01:19:32;;;;;;;7.03;4.20;;;22.90;99.90;;;;;;4951193;29;20612;-79
2023/09/09 01:22:03;;;;;;;6.30;4.53;;;22.90;99.90;;;;;;4919444;29;21088;-79
2023/09/09 01:24:29;;;;;;;4.67;4.20;;;22.90;99.90;;;;;;4936929;29;20640;-79
2023/09/09 01:26:56;;;;;;;4.30;3.87;;;22.80;99.90;;;;;;4955183;29;20584;-80
2023/09/09 01:29:22;;;;;;;4.47;4.07;;;22.80;99.90;;;;;;4955241;29;20588;-79
2023/09/09 01:31:48;;;;;;;4.83;4.23;;;22.80;99.90;;;;;;4939334;29;21207;-79
2023/09/09 01:34:13;;;;;;;4.53;3.23;;;22.80;99.90;;;;;;4939378;29;20599;-79
2023/09/09 01:36:39;;;;;;;6.80;3.73;;;22.80;99.90;;;;;;4938939;29;20181;-79
2023/09/09 01:39:05;;;;;;;5.73;4.20;;;22.80;99.90;;;;;;4923207;29;20191;-79
2023/09/09 01:41:31;;;;;;;4.30;3.67;;;22.70;99.90;;;;;;4954945;28;20265;-79
2023/09/09 01:43:57;;;;;;;5.70;4.33;;;22.70;99.90;;;;;;4923253;29;20680;-80
2023/09/09 01:46:23;;;;;;;4.93;4.10;;;22.70;99.90;;;;;;4939084;29;20185;-79
2023/09/09 01:48:49;;;;;;;5.60;4.30;;;22.70;99.90;;;;;;4931094;29;20657;-80
2023/09/09 01:51:14;;;;;;;4.23;3.43;;;22.60;99.90;;;;;;4956057;28;20283;-80
2023/09/09 01:53:40;;;;;;;4.60;4.10;;;22.60;99.90;;;;;;4922885;29;20207;-80
2023/09/09 01:56:06;;;;;;;5.00;4.00;;;22.60;99.90;;;;;;4950038;29;20209;-80
2023/09/09 01:58:31;;;;;;;5.80;4.10;;;22.60;99.90;;;;;;4936247;29;20191;-80
2023/09/09 02:00:57;;;;;;;6.97;3.77;;;22.60;99.90;;;;;;4946650;28;20770;-80
2023/09/09 02:03:25;;;;;;;4.60;4.20;;;22.60;99.90;;;;;;4932873;29;20272;-79
2023/09/09 02:05:51;;;;;;;4.00;3.37;;;22.50;99.90;;;;;;4935180;29;20188;-80
2023/09/09 02:08:17;;;;;;;4.40;3.77;;;22.50;99.90;;;;;;4934992;29;20597;-80
2023/09/09 02:10:43;;;;;;;4.57;4.10;;;22.50;99.90;;;;;;4937551;29;20661;-80
2023/09/09 02:13:08;;;;;;;5.87;3.87;;;22.50;99.90;;;;;;4945532;29;21278;-80
2023/09/09 02:15:34;;;;;;;4.87;3.60;;;22.50;99.90;;;;;;4944399;29;20615;-80
2023/09/09 02:18:00;;;;;;;12.03;5.00;;;22.40;99.90;;;;;;4930698;29;20599;-80
2023/09/09 02:20:26;;;;;;;5.00;4.50;;;22.40;99.90;;;;;;4926874;29;20603;-80
2023/09/09 02:22:52;;;;;;;4.53;4.07;;;22.40;99.90;;;;;;4950671;28;20639;-80
2023/09/09 02:25:18;;;;;;;4.53;4.13;;;22.40;99.90;;;;;;4935279;29;20310;-80
2023/09/09 02:27:44;;;;;;;4.87;4.27;;;22.40;99.90;;;;;;4945704;28;20177;-80
2023/09/09 02:30:11;;;;;;;9.63;4.10;;;22.30;99.90;;;;;;4929744;29;20581;-80
2023/09/09 02:32:38;;;;;;;4.13;3.73;;;22.30;99.90;;;;;;4956431;28;20697;-80
2023/09/09 02:35:04;;;;;;;4.40;3.97;;;22.30;99.90;;;;;;4930839;29;20581;-80
2023/09/09 02:37:29;;;;;;;4.93;4.20;;;22.20;99.90;;;;;;4942409;29;20978;-80
2023/09/09 02:39:55;;;;;;;4.33;3.80;;;22.20;99.90;;;;;;4957994;29;20591;-80
2023/09/09 02:42:23;;;;;;;5.03;4.10;;;22.20;99.90;;;;;;4965576;29;20204;-80
2023/09/09 02:44:52;;;;;;;6.00;4.50;;;22.20;99.90;;;;;;4945360;29;20188;-80
2023/09/09 02:47:19;;;;;;;4.90;4.50;;;22.10;99.90;;;;;;4948406;29;20627;-80
2023/09/09 02:49:45;;;;;;;4.70;4.30;;;22.10;99.90;;;;;;4934322;29;20580;-80
2023/09/09 02:52:11;;;;;;;4.57;3.73;;;22.10;99.90;;;;;;4940211;29;20636;-80
2023/09/09 02:54:39;;;;;;;6.20;4.23;;;22.00;99.90;;;;;;4939621;29;20593;-80
2023/09/09 02:57:05;;;;;;;5.90;4.50;;;22.00;99.90;;;;;;4923723;29;21013;-80
2023/09/09 02:59:33;;;;;;;4.50;4.10;;;22.00;99.90;;;;;;4924158;29;20820;-80
2023/09/09 03:02:00;;;;;;;5.20;4.70;;;22.00;99.90;;;;;;4935185;29;20652;-80
2023/09/09 03:04:26;;;;;;;4.30;3.90;;;22.00;99.90;;;;;;4935270;29;20593;-79
2023/09/09 03:06:52;;;;;;;4.30;3.90;;;21.90;99.90;;;;;;4920650;29;21005;-79
2023/09/09 03:09:18;;;;;;;4.07;3.67;;;21.90;99.90;;;;;;4921272;29;20177;-80
2023/09/09 03:11:44;;;;;;;5.13;4.63;;;21.90;99.90;;;;;;4936332;29;20696;-79
2023/09/09 03:14:10;;;;;;;6.10;4.03;;;21.90;99.90;;;;;;4937157;29;20637;-80
2023/09/09 03:16:37;;;;;;;4.70;4.20;;;21.80;99.90;;;;;;4934092;29;20589;-79
2023/09/09 03:19:02;;;;;;;5.30;4.80;;;21.80;99.90;;;;;;4934008;29;20948;-79
2023/09/09 03:21:28;;;;;;;5.93;4.30;;;21.80;99.90;;;;;;4934190;29;20629;-79
2023/09/09 03:23:54;;;;;;;7.03;4.17;;;21.80;99.90;;;;;;4937736;29;21205;-78
2023/09/09 03:26:22;;;;;;;6.33;5.00;;;21.70;99.90;;;;;;4954235;29;20180;-80
2023/09/09 03:28:51;;;;;;;4.50;4.10;;;21.70;99.90;;;;;;4937024;29;20240;-79
2023/09/09 03:31:17;;;;;;;4.50;4.10;;;21.70;99.90;;;;;;4952945;29;21242;-79
2023/09/09 03:33:43;;;;;;;4.70;4.30;;;21.70;99.90;;;;;;4952943;29;20720;-79
2023/09/09 03:36:09;;;;;;;8.53;4.77;;;21.70;99.90;;;;;;4953067;29;20623;-79
2023/09/09 03:38:35;;;;;;;6.00;4.00;;;21.60;99.90;;;;;;4951558;29;20580;-79
2023/09/09 03:41:08;;;;;;;4.90;4.40;;;21.60;99.90;;;;;;4937860;29;20584;-79
2023/09/09 03:43:36;;;;;;;6.20;4.83;;;21.60;99.90;;;;;;4936806;29;20602;-79
2023/09/09 03:46:02;;;;;;;3.80;3.50;;;21.50;99.90;;;;;;4936978;29;20986;-78
2023/09/09 03:48:28;;;;;;;4.53;4.13;;;21.50;99.90;;;;;;4930800;28;20595;-79
2023/09/09 03:51:01;;;;;;;5.40;4.83;;;21.50;99.90;;;;;;4936584;28;21173;-79
2023/09/09 03:53:28;;;;;;;5.10;4.60;;;21.50;99.90;;;;;;4920712;29;20207;-79
2023/09/09 03:55:54;;;;;;;5.10;4.60;;;21.40;99.90;;;;;;4941289;29;20620;-79
2023/09/09 03:58:21;;;;;;;4.03;3.63;;;21.40;99.90;;;;;;4932786;29;20953;-80
2023/09/09 04:00:46;;;;;;;5.33;4.60;;;21.40;99.90;;;;;;4933510;29;20589;-80
2023/09/09 04:03:13;;;;;;;5.80;4.67;;;21.40;99.90;;;;;;4932952;29;20752;-80
2023/09/09 04:05:44;;;;;;;4.50;4.00;;;21.40;99.90;;;;;;4901615;29;20589;-80
2023/09/09 04:08:12;;;;;;;5.57;5.00;;;21.30;99.90;;;;;;4917074;29;20585;-80
2023/09/09 04:10:38;;;;;;;5.20;4.53;;;21.30;99.90;;;;;;4950062;28;20599;-80
2023/09/09 04:13:04;;;;;;;4.90;4.20;;;21.30;99.90;;;;;;4952171;28;20655;-80
2023/09/09 04:15:30;;;;;;;5.17;4.00;;;21.30;99.90;;;;;;4952561;29;20921;-79
2023/09/09 04:17:56;;;;;;;5.30;4.80;;;21.30;99.90;;;;;;4917192;29;20181;-80
2023/09/09 04:20:22;;;;;;;4.20;3.80;;;21.30;99.90;;;;;;4933209;29;20599;-80
2023/09/09 04:22:48;;;;;;;5.50;5.00;;;21.20;99.90;;;;;;4926330;29;20628;-80
2023/09/09 04:25:14;;;;;;;4.57;4.13;;;21.20;99.90;;;;;;4928154;29;20189;-80
2023/09/09 04:27:40;;;;;;;6.07;5.13;;;21.10;99.90;;;;;;4902129;29;20188;-78
2023/09/09 04:30:06;;;;;;;5.10;4.60;;;21.10;99.90;;;;;;4933215;29;20600;-78
2023/09/09 04:32:34;;;;;;;6.60;4.63;;;21.10;99.90;;;;;;4916599;29;20217;-78
2023/09/09 04:35:01;;;;;;;5.07;4.67;;;21.10;99.90;;;;;;4917069;29;20597;-79
2023/09/09 04:37:29;;;;;;;5.57;5.07;;;21.10;99.90;;;;;;4901432;29;20641;-78
2023/09/09 04:39:55;;;;;;;4.50;4.10;;;21.00;99.90;;;;;;4932578;29;20180;-78
2023/09/09 04:42:21;;;;;;;6.07;5.10;;;21.00;99.90;;;;;;4924879;29;20699;-78
2023/09/09 04:44:47;;;;;;;4.80;4.40;;;21.00;99.90;;;;;;4918048;29;20590;-78
2023/09/09 04:47:13;;;;;;;5.10;4.43;;;21.00;99.90;;;;;;4932600;29;21152;-78
2023/09/09 04:49:39;;;;;;;4.80;4.20;;;21.00;99.90;;;;;;4933131;29;20581;-78
2023/09/09 04:52:05;;;;;;;4.33;3.93;;;21.00;99.90;;;;;;4932807;29;20242;-78
2023/09/09 04:54:31;;;;;;;4.90;4.40;;;20.90;99.90;;;;;;4897778;29;20177;-78
2023/09/09 04:56:56;;;;;;;8.03;4.90;;;21.00;99.90;;;;;;4905097;29;20590;-79
2023/09/09 04:59:22;;;;;;;5.13;4.63;;;20.90;99.90;;;;;;4932270;29;20629;-79
2023/09/09 05:01:48;;;;;;;4.80;4.40;;;20.90;99.90;;;;;;4937296;29;20609;-79
2023/09/09 05:04:14;;;;;;;5.77;4.97;;;20.90;99.90;;;;;;4937931;29;20188;-79
2023/09/09 05:06:39;;;;;;;5.70;4.60;;;20.90;99.90;;;;;;4937922;29;20181;-78
2023/09/09 05:09:05;;;;;;;4.63;4.23;;;20.90;99.90;;;;;;4936954;29;20192;-79
2023/09/09 05:11:31;;;;;;;5.63;5.10;;;20.90;99.90;;;;;;4919933;29;20219;-78
2023/09/09 05:13:57;;;;;;;6.13;5.57;;;20.90;99.90;;;;;;4934791;29;20272;-79
2023/09/09 05:16:22;;;;;;;5.40;4.50;;;20.90;99.90;;;;;;4934819;29;20268;-79
2023/09/09 05:18:48;;;;;;;6.63;4.80;;;20.90;99.90;;;;;;4918797;29;20188;-79
2023/09/09 05:21:14;;;;;;;4.30;3.90;;;20.90;99.90;;;;;;4937676;29;21340;-79
2023/09/09 05:23:40;;;;;;;5.43;4.93;;;20.90;99.90;;;;;;4924829;29;20196;-79
2023/09/09 05:26:06;;;;;;;5.13;4.10;;;20.90;99.90;;;;;;4937576;29;20239;-79
2023/09/09 05:28:31;;;;;;;4.97;4.57;;;20.90;99.90;;;;;;4945344;29;20596;-79
2023/09/09 05:30:57;;;;;;;9.87;5.60;;;20.90;99.90;;;;;;4932067;29;20189;-79
2023/09/09 05:33:23;;;;;;;5.00;4.57;;;20.90;99.90;;;;;;4939787;29;20208;-79
2023/09/09 05:35:50;;;;;;;5.80;5.20;;;20.90;99.90;;;;;;4910247;29;20176;-79
2023/09/09 05:38:16;;;;;;;6.20;5.23;;;21.00;99.90;;;;;;4945683;29;21168;-79
2023/09/09 05:40:42;;;;;;;5.20;4.80;;;21.00;99.90;;;;;;4923936;29;20591;-79
2023/09/09 05:43:08;;;;;;;6.13;4.63;;;21.00;99.90;;;;;;4932212;28;20594;-79
2023/09/09 05:45:34;;;;;;;4.33;3.93;;;21.10;99.90;;;;;;4924011;29;20193;-79
2023/09/09 05:48:00;;;;;;;5.23;4.23;;;21.10;99.90;;;;;;4931807;29;20589;-79
2023/09/09 05:50:26;;;;;;;5.03;4.53;;;21.20;99.90;;;;;;4939472;29;20644;-79
2023/09/09 05:52:52;;;;;;;5.43;4.97;;;21.20;99.90;;;;;;4917806;29;20656;-79
2023/09/09 05:55:18;;;;;;;5.20;4.70;;;21.20;99.90;;;;;;4913749;29;20184;-78
2023/09/09 05:57:44;;;;;;;5.47;5.00;;;21.30;99.90;;;;;;4933917;29;20208;-78
2023/09/09 06:00:10;;;;;;;4.97;4.47;;;21.30;99.90;;;;;;4936079;29;20612;-78
2023/09/09 06:02:41;;;;;;;5.17;4.70;;;21.40;99.90;;;;;;4950736;28;20623;-79
2023/09/09 06:05:09;;;;;;;5.63;4.77;;;21.40;99.90;;;;;;4959771;28;20592;-78
2023/09/09 06:07:35;;;;;;;8.47;5.20;;;21.40;99.90;;;;;;4924785;29;20620;-77
2023/09/09 06:10:01;;;;;;;8.10;4.20;;;21.50;99.90;;;;;;4936320;29;21048;-78
2023/09/09 06:12:27;;;;;;;5.13;4.40;;;21.50;99.90;;;;;;4935312;29;21317;-78
2023/09/09 06:14:53;;;;;;;5.30;4.40;;;21.50;99.90;;;;;;4944979;29;20209;-78
2023/09/09 06:17:19;;;;;;;5.20;4.60;;;21.60;99.90;;;;;;4922283;29;20188;-80
2023/09/09 06:19:45;;;;;;;4.97;4.47;;;21.70;99.90;;;;;;4946035;29;20588;-79
2023/09/09 06:22:11;;;;;;;5.60;4.70;;;21.70;99.90;;;;;;4942100;28;21226;-78
2023/09/09 06:24:36;;;;;;;4.50;4.10;;;21.80;99.90;;;;;;4927799;29;20181;-79
2023/09/09 06:27:03;;;;;;;6.23;5.10;;;21.80;99.90;;;;;;4930013;29;20188;-79
2023/09/09 06:29:29;;;;;;;5.20;4.70;;;21.90;99.90;;;;;;4954063;29;20576;-79
2023/09/09 06:31:55;;;;;;;4.93;4.37;;;22.00;99.90;;;;;;4920077;29;20627;-79
2023/09/09 06:34:21;;;;;;;7.30;5.43;;;22.10;99.90;;;;;;4938759;29;20670;-77
2023/09/09 06:36:46;;;;;;;5.47;4.97;;;22.20;99.90;;;;;;4936812;29;20263;-77
2023/09/09 06:39:12;;;;;;;6.77;4.93;;;22.20;99.90;;;;;;4903852;29;20188;-77
2023/09/09 06:41:38;;;;;;;6.17;4.60;;;22.30;99.90;;;;;;4910963;28;20199;-77
2023/09/09 06:44:04;;;;;;;4.93;4.47;;;22.40;99.90;;;;;;4946356;28;20181;-78
2023/09/09 06:46:30;;;;;;;5.93;5.33;;;22.50;99.90;;;;;;4947573;29;20216;-78
2023/09/09 06:48:55;;;;;;;5.27;4.87;;;22.60;99.90;;;;;;4949567;29;20639;-77
2023/09/09 06:51:21;;;;;;;6.97;5.00;;;22.80;99.90;;;;;;4948672;29;21022;-77
2023/09/09 06:53:47;;;;;;;5.67;5.03;;;23.20;99.90;;;;;;4942870;29;20671;-77
2023/09/09 06:56:13;;;;;;;5.63;4.70;;;23.70;99.90;;;;;;4944996;29;20734;-77
2023/09/09 06:58:39;;;;;;;4.83;4.43;;;24.40;99.90;;;;;;4944628;29;20184;-75
2023/09/09 07:01:06;;;;;;;4.87;4.10;;;25.20;99.90;;;;;;4941884;29;20213;-78
2023/09/09 07:03:31;;;;;;;4.00;3.60;;;26.10;99.90;;;;;;4941832;29;20206;-77
2023/09/09 07:06:00;;;;;;;4.10;3.60;;;26.90;99.90;;;;;;4946415;29;20980;-78
2023/09/09 07:08:27;;;;;;;4.80;4.20;;;27.70;99.90;;;;;;4953128;29;20980;-78
2023/09/09 07:10:53;;;;;;;4.47;4.03;;;28.40;99.90;;;;;;4942877;29;20619;-77
2023/09/09 07:13:21;;;;;;;4.90;4.40;;;29.10;99.90;;;;;;4952920;28;20659;-79
2023/09/09 07:15:49;;;;;;;5.50;4.33;;;29.90;99.90;;;;;;4928108;29;20684;-79
2023/09/09 07:18:15;;;;;;;4.33;3.40;;;30.70;99.90;;;;;;4914958;29;20586;-79
2023/09/09 07:20:42;;;;;;;4.57;3.53;;;31.30;99.90;;;;;;4950464;29;20596;-78
2023/09/09 07:23:07;;;;;;;4.90;4.10;;;31.90;99.90;;;;;;4949038;28;20223;-78
2023/09/09 07:25:34;;;;;;;4.23;3.93;;;32.60;99.90;;;;;;4938510;29;20619;-78
2023/09/09 07:27:59;;;;;;;4.13;3.50;;;33.10;99.90;;;;;;4933185;29;20239;-79
2023/09/09 07:30:26;;;;;;;4.10;3.43;;;33.60;99.90;;;;;;4939380;29;20584;-78
2023/09/09 07:32:52;;;;;;;4.63;3.77;;;34.10;99.20;;;;;;4944755;28;20224;-79
2023/09/09 07:35:17;;;;;;;4.30;3.77;;;34.60;98.30;;;;;;4948353;29;20589;-79
2023/09/09 07:37:43;;;;;;;4.00;3.43;;;35.00;97.10;;;;;;4933596;29;20191;-79
2023/09/09 07:40:10;;;;;;;6.00;3.57;;;35.50;96.00;;;;;;4917457;29;20554;-78
2023/09/09 07:42:35;;;;;;;4.10;3.80;;;36.10;94.70;;;;;;4901884;29;20268;-79
2023/09/09 07:45:01;;;;;;;4.80;3.40;;;36.60;93.40;;;;;;4943900;29;20592;-79
2023/09/09 07:47:27;;;;;;;5.07;4.57;;;37.20;92.40;;;;;;4926724;29;20243;-79
2023/09/09 07:49:52;;;;;;;7.87;3.50;;;37.60;90.90;;;;;;4934743;29;20656;-79
2023/09/09 07:52:18;;;;;;;6.20;4.03;;;38.10;89.00;;;;;;4931472;29;20212;-78
2023/09/09 07:54:44;;;;;;;4.30;3.60;;;38.50;85.70;;;;;;4930967;29;20842;-78
2023/09/09 07:57:09;;;;;;;4.10;3.47;;;38.90;82.40;;;;;;4936000;29;20177;-78
2023/09/09 07:59:38;;;;;;;3.90;2.97;;;38.90;78.60;;;;;;4948691;29;20219;-78
2023/09/09 08:02:05;;;;;;;3.70;3.10;;;38.70;74.90;;;;;;4952442;28;21005;-79
2023/09/09 08:04:31;;;;;;;5.93;3.20;;;38.80;73.50;;;;;;4945687;29;20659;-79
2023/09/09 08:06:57;;;;;;;4.10;3.70;;;38.60;71.00;;;;;;4926530;29;20684;-79
2023/09/09 08:09:22;;;;;;;10.03;4.50;;;38.60;70.30;;;;;;4933184;29;20180;-79
2023/09/09 08:11:48;;;;;;;3.63;3.33;;;38.80;69.60;;;;;;4925684;29;20208;-79
2023/09/09 08:14:14;;;;;;;3.90;3.50;;;39.20;68.70;;;;;;4946036;28;20290;-78
2023/09/09 08:16:41;;;;;;;5.67;3.57;;;39.40;66.40;;;;;;4952377;29;20267;-79
2023/09/09 08:19:06;;;;;;;4.57;3.83;;;39.50;64.90;;;;;;4935631;29;20704;-79
2023/09/09 08:21:32;;;;;;;4.50;3.67;;;39.60;63.90;;;;;;4931215;28;20722;-79
2023/09/09 08:24:01;;;;;;;4.77;2.63;;;39.90;63.60;;;;;;4953203;29;20269;-79
2023/09/09 08:26:28;;;;;;;4.57;3.40;;;40.30;62.50;;;;;;4954235;28;20224;-79
2023/09/09 08:28:54;;;;;;;4.57;3.93;;;40.40;61.10;;;;;;4932541;29;20950;-79
2023/09/09 08:31:21;;;;;;;4.67;3.80;;;40.70;59.90;;;;;;4941936;29;20621;-78
2023/09/09 08:33:47;;;;;;;3.80;3.40;;;41.10;58.90;;;;;;4932582;29;20628;-78
2023/09/09 08:36:12;;;;;;;3.60;3.07;;;41.30;57.90;;;;;;4949245;29;20589;-77
2023/09/09 08:38:38;;;;;;;4.10;3.80;;;41.20;56.90;;;;;;4933442;29;20193;-77
2023/09/09 08:41:15;;;;;;;4.47;3.50;;;41.30;56.30;;;;;;4950720;28;20184;-77
2023/09/09 08:43:48;;;;;;;5.00;3.17;;;41.50;55.20;;;;;;4952955;29;20214;-77
2023/09/09 08:46:20;;;;;;;5.30;3.37;;;41.60;55.00;;;;;;4935799;29;20588;-78
2023/09/09 08:48:49;;;;;;;3.30;3.00;;;41.90;54.20;;;;;;4925048;29;20596;-76
2023/09/09 08:51:24;;;;;;;4.73;3.00;;;42.30;53.80;;;;;;4952995;29;20591;-77
2023/09/09 08:53:54;;;;;;;3.23;2.70;;;42.50;52.90;;;;;;4927071;29;21279;-76
2023/09/09 08:56:21;;;;;;;5.03;3.20;;;42.70;52.30;;;;;;4931934;29;20581;-77
2023/09/09 08:58:46;;;;;;;4.70;3.50;;;43.00;52.00;;;;;;4939678;29;20576;-78
2023/09/09 09:01:14;;;;;;;4.93;3.50;;;43.30;51.20;;;;;;4940227;29;21164;-78
2023/09/09 09:03:40;;;;;;;4.70;3.27;;;43.40;50.30;;;;;;4938954;29;20220;-78
2023/09/09 09:06:06;;;;;;;3.80;2.90;;;43.70;50.00;;;;;;4933169;29;20627;-78
2023/09/09 09:08:33;;;;;;;3.47;3.17;;;43.80;48.70;;;;;;4933685;29;21175;-77
2023/09/09 09:11:01;;;;;;;5.10;3.10;;;43.80;48.30;;;;;;4932175;29;20172;-78
2023/09/09 09:13:31;;;;;;;3.67;2.70;;;43.90;47.80;;;;;;4929593;29;20635;-77
2023/09/09 09:15:57;;;;;;;3.60;3.10;;;44.10;47.10;;;;;;4951563;29;20592;-78
2023/09/09 09:18:23;;;;;;;6.23;2.70;;;44.10;46.90;;;;;;4941174;29;20592;-77
2023/09/09 09:20:49;;;;;;;7.57;3.13;;;44.20;46.40;;;;;;4940161;29;21157;-78
2023/09/09 09:23:15;;;;;;;4.33;3.23;;;44.40;46.30;;;;;;4944315;28;20252;-77
2023/09/09 09:25:45;;;;;;;4.30;2.93;;;44.60;46.00;;;;;;4946869;29;21260;-78
2023/09/09 09:28:13;;;;;;;7.20;3.20;;;44.80;45.30;;;;;;4952520;29;20327;-78
2023/09/09 09:30:39;;;;;;;4.67;3.13;;;44.90;45.30;;;;;;4945376;29;20627;-77
2023/09/09 09:33:05;;;;;;;5.20;2.90;;;45.20;44.40;;;;;;4927563;29;20683;-77
2023/09/09 09:35:32;;;;;;;5.57;2.77;;;45.20;43.90;;;;;;4941673;29;20663;-78
2023/09/09 09:38:06;;;;;;;4.00;2.97;;;45.30;43.40;;;;;;4925293;29;20177;-77
2023/09/09 09:40:33;;;;;;;2.80;2.40;;;45.40;42.90;;;;;;4949435;29;20683;-78
2023/09/09 09:42:59;;;;;;;11.07;2.90;;;45.40;42.70;;;;;;4951225;29;20671;-78
2023/09/09 09:45:26;;;;;;;4.63;3.00;;;45.50;42.80;;;;;;4948420;28;21197;-80
2023/09/09 09:47:53;;;;;;;3.90;2.57;;;45.60;42.40;;;;;;4933993;29;20196;-78
2023/09/09 09:50:30;;;;;;;4.37;2.67;;;45.70;42.50;;;;;;4934191;29;20584;-78
2023/09/09 09:52:58;;;;;;;3.40;2.87;;;45.70;42.30;;;;;;4947671;29;20648;-77
2023/09/09 09:55:24;;;;;;;4.07;2.90;;;45.80;42.00;;;;;;4938707;29;20576;-78
2023/09/09 09:57:54;;;;;;;3.27;2.77;;;45.90;41.60;;;;;;4952879;29;20616;-77
2023/09/09 10:00:21;;;;;;;3.67;2.80;;;45.80;41.10;;;;;;4937154;29;20671;-78
2023/09/09 10:02:51;;;;;;;5.60;3.07;;;45.70;40.90;;;;;;4926152;29;20616;-77
2023/09/09 10:05:19;;;;;;;4.00;3.57;;;45.60;40.60;;;;;;4914441;29;21227;-78
2023/09/09 10:07:51;;;;;;;4.77;3.40;;;45.40;40.20;;;;;;4951379;29;20607;-78
2023/09/09 10:10:19;;;;;;;5.60;3.37;;;45.00;40.10;;;;;;4936359;29;20612;-78
2023/09/09 10:12:51;;;;;;;7.07;3.40;;;44.90;40.50;;;;;;4927393;29;21242;-78
2023/09/09 10:15:19;;;;;;;6.00;3.90;;;44.80;40.20;;;;;;4951163;29;20600;-77
2023/09/09 10:17:46;;;;;;;4.90;3.20;;;44.60;40.00;;;;;;4944282;29;20588;-77
2023/09/09 10:20:12;;;;;;;6.33;3.10;;;44.50;40.20;;;;;;4934824;29;20596;-78
2023/09/09 10:22:40;;;;;;;3.30;2.67;;;44.40;40.20;;;;;;4942061;29;20674;-77
2023/09/09 10:25:10;;;;;;;4.80;2.77;;;44.50;40.40;;;;;;4945474;29;20959;-77
2023/09/09 10:27:37;;;;;;;6.20;2.97;;;44.60;40.60;;;;;;4934813;29;20656;-77
2023/09/09 10:30:03;;;;;;;6.33;2.80;;;44.70;40.40;;;;;;4934776;29;20596;-78
2023/09/09 10:32:30;;;;;;;4.60;2.43;;;44.80;40.10;;;;;;4931723;29;20611;-78
2023/09/09 10:34:58;;;;;;;6.77;2.57;;;44.90;40.20;;;;;;4929566;29;20623;-78
2023/09/09 10:37:26;;;;;;;5.67;3.07;;;45.10;40.10;;;;;;4935769;29;20573;-77
2023/09/09 10:39:52;;;;;;;7.17;3.03;;;45.00;39.30;;;;;;4936044;29;20577;-78
2023/09/09 10:42:19;;;;;;;4.73;3.03;;;44.70;39.00;;;;;;4921934;29;21015;-78
2023/09/09 10:44:48;;;;;;;4.77;3.07;;;44.50;39.20;;;;;;4927587;29;21139;-78
2023/09/09 10:47:19;;;;;;;7.43;3.53;;;44.40;39.00;;;;;;4935943;29;20584;-78
2023/09/09 10:49:44;;;;;;;4.63;3.40;;;44.00;39.10;;;;;;4929960;29;20631;-78
2023/09/09 10:52:29;;;;;;;6.10;3.50;;;43.80;39.50;;;;;;4953615;28;21468;-78
2023/09/09 10:55:12;;;;;;;5.40;3.13;;;43.80;39.70;;;;;;4929607;29;20183;-78
2023/09/09 10:57:38;;;;;;;7.20;3.63;;;43.80;40.20;;;;;;4937183;29;20672;-78
2023/09/09 11:00:11;;;;;;;9.33;4.07;;;43.90;39.80;;;;;;4954668;29;20608;-78
2023/09/09 11:02:46;;;;;;;4.83;3.27;;;43.80;39.60;;;;;;4932058;29;20269;-78
2023/09/09 11:05:15;;;;;;;4.07;2.97;;;43.80;39.50;;;;;;4953673;29;20582;-78
2023/09/09 11:07:44;;;;;;;4.03;2.97;;;43.40;39.30;;;;;;4910535;29;20642;-77
2023/09/09 11:10:16;;;;;;;4.87;3.10;;;43.30;39.60;;;;;;4943146;29;20960;-78
2023/09/09 11:12:57;;;;;;;7.07;2.80;;;43.20;39.90;;;;;;4940357;29;20631;-78
2023/09/09 11:15:25;;;;;;;4.93;3.20;;;43.20;40.00;;;;;;4942983;29;20615;-78
2023/09/09 11:17:51;;;;;;;6.57;4.10;;;43.20;40.00;;;;;;4937154;29;21156;-78
2023/09/09 11:20:20;;;;;;;8.10;2.90;;;43.20;40.20;;;;;;4935076;29;20729;-78
2023/09/09 11:22:46;;;;;;;4.90;2.60;;;43.20;40.30;;;;;;4940434;29;20706;-77
2023/09/09 11:25:15;;;;;;;6.27;2.90;;;43.40;40.40;;;;;;4951249;28;20699;-77
2023/09/09 11:27:43;;;;;;;5.70;3.67;;;43.40;40.30;;;;;;4940115;29;20992;-78
2023/09/09 11:30:09;;;;;;;8.53;3.57;;;43.50;40.30;;;;;;4952454;29;20583;-78
2023/09/09 11:32:35;;;;;;;10.00;3.33;;;43.60;40.20;;;;;;4943072;29;20665;-78
2023/09/09 11:35:01;;;;;;;5.30;2.57;;;43.60;40.30;;;;;;4910754;29;20584;-78
2023/09/09 11:37:27;;;;;;;7.23;3.17;;;43.60;40.60;;;;;;4932678;29;20187;-78
2023/09/09 11:39:54;;;;;;;5.07;2.90;;;43.50;39.70;;;;;;4933633;29;20672;-78
2023/09/09 11:42:20;;;;;;;4.77;3.40;;;43.50;39.70;;;;;;4936433;29;20200;-78
2023/09/09 11:44:47;;;;;;;4.90;3.10;;;43.40;40.00;;;;;;4952655;29;20588;-78
2023/09/09 11:47:17;;;;;;;4.63;2.70;;;43.30;40.10;;;;;;4951502;29;20588;-78
2023/09/09 11:49:44;;;;;;;5.97;2.97;;;43.30;40.10;;;;;;4934773;29;20587;-78
2023/09/09 11:52:11;;;;;;;7.10;3.07;;;43.20;40.10;;;;;;4933734;29;20648;-78
2023/09/09 11:54:37;;;;;;;3.70;2.97;;;43.10;40.10;;;;;;4938275;29;20660;-78
2023/09/09 11:57:07;;;;;;;4.80;3.60;;;42.90;40.10;;;;;;4917647;29;20593;-77
2023/09/09 11:59:47;;;;;;;4.00;3.40;;;42.90;40.20;;;;;;4947822;29;20191;-78
2023/09/09 12:02:28;;;;;;;8.70;2.77;;;42.80;39.90;;;;;;4953217;28;20603;-78
2023/09/09 12:04:55;;;;;;;4.77;2.93;;;42.60;40.30;;;;;;4954647;29;20636;-78
2023/09/09 12:07:23;;;;;;;6.07;3.13;;;42.50;40.30;;;;;;4937529;28;20615;-79
2023/09/09 12:09:49;;;;;;;5.77;3.77;;;42.30;40.30;;;;;;4955392;29;20603;-78
2023/09/09 12:12:16;;;;;;;11.47;3.27;;;42.30;40.50;;;;;;4954868;28;20620;-78
2023/09/09 12:14:42;;;;;;;7.57;3.20;;;42.10;40.30;;;;;;4948366;29;20199;-78
2023/09/09 12:17:09;;;;;;;9.70;3.40;;;41.90;40.60;;;;;;4942784;29;20671;-78
2023/09/09 12:19:35;;;;;;;7.97;3.40;;;41.70;40.70;;;;;;4946561;29;20580;-78
2023/09/09 12:22:00;;;;;;;6.43;3.40;;;41.40;40.80;;;;;;4945461;28;21198;-78
2023/09/09 12:24:26;;;;;;;5.23;3.10;;;41.30;41.10;;;;;;4941149;29;20216;-78
2023/09/09 12:26:53;;;;;;;7.83;3.60;;;41.00;41.30;;;;;;4948123;29;20219;-78
2023/09/09 12:29:19;;;;;;;7.37;3.70;;;40.80;41.50;;;;;;4936547;29;20559;-78
2023/09/09 12:31:57;;;;;;;7.90;3.00;;;40.60;41.40;;;;;;4949531;29;20601;-78
2023/09/09 12:34:24;;;;;;;6.40;2.73;;;40.50;41.70;;;;;;4953273;29;20180;-77
2023/09/09 12:36:55;;;;;;;7.30;2.60;;;40.30;41.60;;;;;;4953071;29;20650;-78
2023/09/09 12:39:26;;;;;;;5.27;1.80;;;40.20;42.30;;;;;;4953020;29;20587;-78
2023/09/09 12:42:07;;;;;;;6.40;2.60;;;40.00;41.30;;;;;;4951809;29;20666;-78
2023/09/09 12:44:47;;;;;;;4.73;2.00;;;39.70;41.10;;;;;;4951679;29;20643;-78